createdAt,value
2023-04-29T00:01:59.152Z,99291.46
2023-04-29T00:04:26.586Z,99293.80
2023-04-29T00:06:53.764Z,99298.92
2023-04-29T00:09:21.819Z,99305.75
2023-04-29T00:11:50.526Z,99302.30
2023-04-29T00:14:17.662Z,99304.67
2023-04-29T00:16:44.826Z,99308.81
2023-04-29T00:19:11.823Z,99306.53
2023-04-29T00:21:38.937Z,99305.41
2023-04-29T00:24:06.204Z,99303.98
2023-04-29T00:26:33.738Z,99304.08
2023-04-29T00:29:01.193Z,99306.56
2023-04-29T00:31:28.408Z,99308.41
2023-04-29T00:33:55.800Z,99310.58
2023-04-29T00:36:22.847Z,99311.13
2023-04-29T00:38:50.459Z,99305.23
2023-04-29T00:41:17.606Z,99307.73
2023-04-29T00:43:44.682Z,99304.55
2023-04-29T00:46:13.914Z,99300.80
2023-04-29T00:48:41.593Z,99300.79
2023-04-29T00:51:09.360Z,99294.30
2023-04-29T00:53:36.567Z,99294.91
2023-04-29T00:56:04.086Z,99289.13
2023-04-29T00:58:35.500Z,99292.76
2023-04-29T01:01:03.982Z,99287.78
2023-04-29T01:03:32.615Z,99292.39
2023-04-29T01:06:05.458Z,99290.14
2023-04-29T01:08:49.573Z,99287.30
2023-04-29T01:11:16.655Z,99287.81
2023-04-29T01:13:51.154Z,99286.47
2023-04-29T01:16:22.483Z,99272.23
2023-04-29T01:18:58.035Z,99270.20
2023-04-29T01:21:32.224Z,99273.69
2023-04-29T01:23:59.592Z,99286.14
2023-04-29T01:26:30.978Z,99290.13
2023-04-29T01:29:42.299Z,99288.55
2023-04-29T01:32:14.164Z,99287.23
2023-04-29T01:34:55.802Z,99280.44
2023-04-29T01:37:36.072Z,99263.73
2023-04-29T01:40:18.407Z,99254.09
2023-04-29T01:43:04.607Z,99237.09
2023-04-29T01:45:34.389Z,99240.20
2023-04-29T01:48:02.094Z,99248.51
2023-04-29T01:50:30.594Z,99269.73
2023-04-29T01:53:04.719Z,99285.36
2023-04-29T01:55:31.960Z,99293.73
2023-04-29T01:58:17.464Z,99291.63
2023-04-29T02:00:59.663Z,99294.59
2023-04-29T02:03:27.221Z,99311.14
2023-04-29T02:05:57.748Z,99315.36
2023-04-29T02:08:25.043Z,99320.30
2023-04-29T02:10:54.084Z,99328.19
2023-04-29T02:13:33.799Z,99330.59
2023-04-29T02:16:09.151Z,99329.80
2023-04-29T02:18:36.985Z,99331.66
2023-04-29T02:21:05.688Z,99340.18
2023-04-29T02:23:35.755Z,99345.56
2023-04-29T02:26:05.654Z,99347.98
2023-04-29T02:28:35.686Z,99342.15
2023-04-29T02:31:02.830Z,99345.20
2023-04-29T02:33:31.191Z,99345.48
2023-04-29T02:35:59.840Z,99349.34
2023-04-29T02:38:26.924Z,99356.53
2023-04-29T02:40:53.915Z,99361.95
2023-04-29T02:43:21.895Z,99367.15
2023-04-29T02:45:48.977Z,99363.39
2023-04-29T02:48:16.606Z,99367.30
2023-04-29T02:50:43.620Z,99374.75
2023-04-29T02:53:10.694Z,99381.06
2023-04-29T02:55:38.101Z,99389.17
2023-04-29T02:58:08.342Z,99385.21
2023-04-29T03:00:35.425Z,99383.84
2023-04-29T03:03:02.617Z,99380.80
2023-04-29T03:05:29.911Z,99384.38
2023-04-29T03:07:57.432Z,99386.95
2023-04-29T03:10:24.638Z,99387.78
2023-04-29T03:12:52.090Z,99388.98
2023-04-29T03:15:19.697Z,99391.66
2023-04-29T03:17:48.470Z,99393.36
2023-04-29T03:20:16.219Z,99399.02
2023-04-29T03:22:43.257Z,99409.79
2023-04-29T03:25:10.787Z,99406.02
2023-04-29T03:27:39.731Z,99401.06
2023-04-29T03:30:07.971Z,99408.16
2023-04-29T03:32:35.645Z,99407.31
2023-04-29T03:35:03.679Z,99413.20
2023-04-29T03:37:39.878Z,99417.94
2023-04-29T03:40:19.111Z,99413.86
2023-04-29T03:42:46.770Z,99412.34
2023-04-29T03:45:14.517Z,99413.17
2023-04-29T03:47:41.718Z,99415.34
2023-04-29T03:50:09.193Z,99407.94
2023-04-29T03:52:36.716Z,99413.65
2023-04-29T03:55:09.437Z,99406.59
2023-04-29T03:57:37.153Z,99408.80
2023-04-29T04:00:05.883Z,99408.88
2023-04-29T04:02:40.612Z,99405.36
2023-04-29T04:05:08.429Z,99409.02
2023-04-29T04:07:36.704Z,99418.50
2023-04-29T04:10:22.852Z,99427.98
2023-04-29T04:12:50.046Z,99428.15
2023-04-29T04:15:17.466Z,99433.46
2023-04-29T04:17:44.698Z,99440.14
2023-04-29T04:20:12.685Z,99439.84
2023-04-29T04:22:40.181Z,99441.18
2023-04-29T04:25:19.422Z,99445.49
2023-04-29T04:27:46.622Z,99444.17
2023-04-29T04:30:21.102Z,99444.27
2023-04-29T04:32:48.137Z,99443.32
2023-04-29T04:35:15.285Z,99435.62
2023-04-29T04:37:42.459Z,99438.52
2023-04-29T04:40:12.077Z,99443.73
2023-04-29T04:42:49.965Z,99441.64
2023-04-29T04:45:18.089Z,99439.21
2023-04-29T04:47:49.957Z,99433.13
2023-04-29T04:50:30.187Z,99434.90
2023-04-29T04:53:04.699Z,99443.73
2023-04-29T04:55:52.089Z,99449.78
2023-04-29T04:58:19.417Z,99451.69
2023-04-29T05:00:46.830Z,99450.27
2023-04-29T05:03:14.286Z,99451.92
2023-04-29T05:05:41.442Z,99456.94
2023-04-29T05:08:09.090Z,99451.02
2023-04-29T05:10:40.618Z,99451.20
2023-04-29T05:13:07.781Z,99460.23
2023-04-29T05:15:35.611Z,99457.84
2023-04-29T05:18:03.526Z,99462.48
2023-04-29T05:20:31.447Z,99456.11
2023-04-29T05:23:00.216Z,99469.89
2023-04-29T05:25:27.357Z,99457.89
2023-04-29T05:27:56.153Z,99481.59
2023-04-29T05:30:24.894Z,99481.68
2023-04-29T05:32:52.115Z,99489.39
2023-04-29T05:35:19.751Z,99494.66
2023-04-29T05:37:46.982Z,99496.34
2023-04-29T05:40:36.371Z,99496.02
2023-04-29T05:43:17.099Z,99501.67
2023-04-29T05:45:47.093Z,99506.85
2023-04-29T05:48:14.253Z,99500.44
2023-04-29T05:50:42.840Z,99498.23
2023-04-29T05:53:11.405Z,99495.66
2023-04-29T05:55:39.857Z,99503.55
2023-04-29T05:58:07.181Z,99518.46
2023-04-29T06:00:35.921Z,99515.29
2023-04-29T06:03:05.957Z,99520.09
2023-04-29T06:05:34.560Z,99522.73
2023-04-29T06:08:31.302Z,99522.46
2023-04-29T06:11:14.796Z,99527.52
2023-04-29T06:13:42.104Z,99533.26
2023-04-29T06:16:09.921Z,99518.70
2023-04-29T06:18:38.308Z,99526.40
2023-04-29T06:21:05.650Z,99526.68
2023-04-29T06:23:33.014Z,99529.98
2023-04-29T06:26:03.259Z,99529.69
2023-04-29T06:28:30.409Z,99533.11
2023-04-29T06:30:57.697Z,99522.73
2023-04-29T06:33:25.211Z,99526.48
2023-04-29T06:35:52.225Z,99529.50
2023-04-29T06:38:42.683Z,99525.88
2023-04-29T06:41:27.473Z,99530.51
2023-04-29T06:44:20.599Z,99527.23
2023-04-29T06:46:56.598Z,99540.30
2023-04-29T06:49:55.886Z,99538.51
2023-04-29T06:52:22.985Z,99545.58
2023-04-29T06:54:50.535Z,99545.77
2023-04-29T06:57:19.255Z,99546.15
2023-04-29T06:59:46.713Z,99525.11
2023-04-29T07:02:13.986Z,99551.80
2023-04-29T07:04:41.675Z,99548.42
2023-04-29T07:07:08.870Z,99560.03
2023-04-29T07:09:36.205Z,99566.38
2023-04-29T07:12:48.601Z,99572.25
2023-04-29T07:15:16.378Z,99576.59
2023-04-29T07:17:45.913Z,99581.07
2023-04-29T07:20:14.436Z,99591.95
2023-04-29T07:22:44.196Z,99580.83
2023-04-29T07:25:11.371Z,99588.48
2023-04-29T07:27:38.652Z,99594.01
2023-04-29T07:30:06.824Z,99591.77
2023-04-29T07:32:34.108Z,99594.21
2023-04-29T07:35:04.530Z,99597.48
2023-04-29T07:37:32.837Z,99599.34
2023-04-29T07:39:59.989Z,99591.48
2023-04-29T07:42:27.829Z,99592.45
2023-04-29T07:44:55.211Z,99607.26
2023-04-29T07:47:22.911Z,99600.87
2023-04-29T07:49:50.777Z,99602.69
2023-04-29T07:52:18.365Z,99615.91
2023-04-29T07:54:45.594Z,99618.64
2023-04-29T07:57:12.877Z,99624.80
2023-04-29T07:59:39.996Z,99613.20
2023-04-29T08:02:07.637Z,99621.91
2023-04-29T08:04:36.852Z,99628.22
2023-04-29T08:07:09.977Z,99628.27
2023-04-29T08:09:37.071Z,99630.50
2023-04-29T08:12:06.183Z,99613.27
2023-04-29T08:14:33.432Z,99638.19
2023-04-29T08:17:00.937Z,99632.59
2023-04-29T08:19:28.382Z,99628.89
2023-04-29T08:21:57.183Z,99633.47
2023-04-29T08:24:25.331Z,99648.12
2023-04-29T08:26:54.401Z,99647.02
2023-04-29T08:29:22.006Z,99657.62
2023-04-29T08:31:50.528Z,99655.48
2023-04-29T08:34:18.077Z,99657.25
2023-04-29T08:36:45.251Z,99659.67
2023-04-29T08:39:13.906Z,99665.66
2023-04-29T08:41:41.193Z,99655.45
2023-04-29T08:44:08.539Z,99663.78
2023-04-29T08:46:36.936Z,99661.94
2023-04-29T08:49:04.496Z,99665.95
2023-04-29T08:51:33.342Z,99670.94
2023-04-29T08:54:01.499Z,99662.29
2023-04-29T08:56:29.015Z,99669.13
2023-04-29T08:58:56.863Z,99674.52
2023-04-29T09:01:24.470Z,99667.15
2023-04-29T09:04:24.233Z,99669.41
2023-04-29T09:06:52.928Z,99661.52
2023-04-29T09:09:21.263Z,99671.54
2023-04-29T09:11:48.398Z,99666.52
2023-04-29T09:14:15.517Z,99666.26
2023-04-29T09:16:42.530Z,99662.23
2023-04-29T09:19:10.883Z,99663.88
2023-04-29T09:21:37.897Z,99658.16
2023-04-29T09:24:06.261Z,99657.73
2023-04-29T09:26:43.631Z,99659.96
2023-04-29T09:29:16.071Z,99663.83
2023-04-29T09:31:43.274Z,99654.44
2023-04-29T09:34:12.007Z,99644.44
2023-04-29T09:36:40.674Z,99635.56
2023-04-29T09:39:12.600Z,99640.31
2023-04-29T09:41:57.390Z,99641.61
2023-04-29T09:44:45.965Z,99650.86
2023-04-29T09:47:13.475Z,99653.00
2023-04-29T09:49:45.587Z,99653.66
2023-04-29T09:52:14.012Z,99654.64
2023-04-29T09:54:41.530Z,99655.77
2023-04-29T09:57:09.519Z,99658.46
2023-04-29T09:59:38.443Z,99661.30
2023-04-29T10:02:18.719Z,99654.77
2023-04-29T10:04:47.759Z,99644.95
2023-04-29T10:07:16.979Z,99654.67
2023-04-29T10:09:47.801Z,99656.05
2023-04-29T10:12:19.025Z,99648.33
2023-04-29T10:15:12.610Z,99651.09
2023-04-29T10:17:46.987Z,99645.70
2023-04-29T10:20:22.822Z,99652.42
2023-04-29T10:22:50.663Z,99650.13
2023-04-29T10:25:21.927Z,99655.73
2023-04-29T10:27:51.414Z,99648.11
2023-04-29T10:30:18.598Z,99650.73
2023-04-29T10:32:51.234Z,99651.92
2023-04-29T10:35:20.384Z,99651.38
2023-04-29T10:37:48.673Z,99648.31
2023-04-29T10:40:16.579Z,99647.95
2023-04-29T10:42:44.667Z,99639.55
2023-04-29T10:45:18.682Z,99646.93
2023-04-29T10:48:13.453Z,99657.52
2023-04-29T10:50:50.000Z,99646.47
2023-04-29T10:53:19.641Z,99654.19
2023-04-29T10:55:54.367Z,99647.55
2023-04-29T10:58:46.723Z,99646.17
2023-04-29T11:01:17.683Z,99644.36
2023-04-29T11:03:58.956Z,99651.24
2023-04-29T11:06:47.513Z,99653.73
2023-04-29T11:09:31.089Z,99651.39
2023-04-29T11:12:01.677Z,99650.42
2023-04-29T11:14:38.881Z,99653.21
2023-04-29T11:17:08.643Z,99642.04
2023-04-29T11:19:46.959Z,99643.53
2023-04-29T11:22:23.166Z,99633.59
2023-04-29T11:24:53.287Z,99628.54
2023-04-29T11:27:22.991Z,99626.24
2023-04-29T11:29:50.419Z,99636.78
2023-04-29T11:32:21.669Z,99633.45
2023-04-29T11:34:48.746Z,99632.11
2023-04-29T11:37:26.051Z,99635.63
2023-04-29T11:40:00.318Z,99637.86
2023-04-29T11:42:27.609Z,99627.87
2023-04-29T11:44:56.862Z,99623.52
2023-04-29T11:47:30.894Z,99626.87
2023-04-29T11:50:05.573Z,99626.66
2023-04-29T11:52:32.863Z,99620.01
2023-04-29T11:55:00.476Z,99645.89
2023-04-29T11:57:27.481Z,99650.08
2023-04-29T11:59:57.314Z,99660.48
2023-04-29T12:02:30.866Z,99662.42
2023-04-29T12:04:59.072Z,99671.30
2023-04-29T12:07:26.396Z,99672.71
2023-04-29T12:09:54.715Z,99670.44
2023-04-29T12:12:21.736Z,99666.91
2023-04-29T12:14:48.729Z,99668.88
2023-04-29T12:17:15.668Z,99669.02
2023-04-29T12:19:44.272Z,99671.34
2023-04-29T12:22:11.243Z,99664.05
2023-04-29T12:24:39.284Z,99667.68
2023-04-29T12:27:09.719Z,99669.35
2023-04-29T12:29:37.323Z,99665.22
2023-04-29T12:32:04.298Z,99655.00
2023-04-29T12:34:32.025Z,99666.94
2023-04-29T12:37:00.171Z,99668.00
2023-04-29T12:39:30.385Z,99662.75
2023-04-29T12:42:00.900Z,99667.48
2023-04-29T12:44:35.489Z,99666.13
2023-04-29T12:47:11.931Z,99660.73
2023-04-29T12:49:43.274Z,99646.43
2023-04-29T12:52:10.666Z,99638.37
2023-04-29T12:54:38.424Z,99641.84
2023-04-29T12:57:05.933Z,99642.61
2023-04-29T12:59:32.930Z,99633.50
2023-04-29T13:02:00.048Z,99637.40
2023-04-29T13:04:27.417Z,99644.64
2023-04-29T13:06:59.138Z,99625.81
2023-04-29T13:09:29.351Z,99646.83
2023-04-29T13:11:57.914Z,99650.11
2023-04-29T13:14:27.925Z,99655.91
2023-04-29T13:16:55.469Z,99650.80
2023-04-29T13:21:53.128Z,99657.23
2023-04-29T13:24:21.093Z,99657.39
2023-04-29T13:26:50.344Z,99662.13
2023-04-29T13:29:19.274Z,99667.07
2023-04-29T13:31:46.425Z,99663.66
2023-04-29T13:34:13.567Z,99665.39
2023-04-29T13:36:40.906Z,99662.55
2023-04-29T13:39:07.878Z,99657.30
2023-04-29T13:41:35.750Z,99662.77
2023-04-29T13:44:04.350Z,99653.92
2023-04-29T13:46:33.304Z,99657.47
2023-04-29T13:57:18.520Z,99660.86
2023-04-29T14:04:17.383Z,99672.16
2023-04-29T14:06:44.652Z,99676.82
2023-04-29T14:09:11.667Z,99681.25
2023-04-29T14:11:39.309Z,99677.40
2023-04-29T14:14:06.269Z,99674.64
2023-04-29T14:16:33.390Z,99679.76
2023-04-29T14:19:02.881Z,99678.77
2023-04-29T14:21:33.303Z,99676.86
2023-04-29T14:24:02.645Z,99685.95
2023-04-29T14:26:31.149Z,99689.93
2023-04-29T14:28:59.888Z,99697.79
2023-04-29T14:31:30.727Z,99690.08
2023-04-29T14:33:58.123Z,99690.36
2023-04-29T14:36:25.478Z,99687.13
2023-04-29T14:38:53.356Z,99673.61
2023-04-29T14:41:22.110Z,99670.42
2023-04-29T14:43:49.333Z,99668.48
2023-04-29T14:46:16.914Z,99677.01
2023-04-29T14:48:44.134Z,99677.48
2023-04-29T14:51:11.987Z,99685.21
2023-04-29T14:53:39.490Z,99684.05
2023-04-29T14:56:08.135Z,99675.45
2023-04-29T14:58:35.566Z,99674.64
2023-04-29T15:01:02.636Z,99680.75
2023-04-29T15:03:30.008Z,99682.58
2023-04-29T15:05:59.063Z,99679.02
2023-04-29T15:08:26.191Z,99668.73
2023-04-29T15:10:53.226Z,99680.66
2023-04-29T15:13:20.362Z,99679.80
2023-04-29T15:15:47.625Z,99674.69
2023-04-29T15:18:15.324Z,99673.71
2023-04-29T15:20:42.634Z,99673.94
2023-04-29T15:23:09.699Z,99664.98
2023-04-29T15:25:36.777Z,99666.17
2023-04-29T15:28:04.916Z,99666.44
2023-04-29T15:30:32.573Z,99664.52
2023-04-29T15:32:59.568Z,99666.27
2023-04-29T15:35:26.553Z,99665.11
2023-04-29T15:37:53.923Z,99668.30
2023-04-29T15:40:22.340Z,99675.05
2023-04-29T15:42:49.435Z,99676.32
2023-04-29T15:45:17.087Z,99681.11
2023-04-29T15:47:44.344Z,99681.41
2023-04-29T15:50:11.616Z,99678.39
2023-04-29T15:52:39.174Z,99681.03
2023-04-29T15:55:06.924Z,99679.69
2023-04-29T15:57:42.080Z,99677.08
2023-04-29T16:00:09.811Z,99679.88
2023-04-29T16:02:37.935Z,99673.41
2023-04-29T16:05:05.432Z,99670.63
2023-04-29T16:07:35.537Z,99668.77
2023-04-29T16:10:04.015Z,99666.71
2023-04-29T16:12:31.564Z,99660.20
2023-04-29T16:14:58.507Z,99657.98
2023-04-29T16:17:25.696Z,99655.88
2023-04-29T16:19:52.817Z,99660.41
2023-04-29T16:22:20.009Z,99653.58
2023-04-29T16:24:49.323Z,99636.11
2023-04-29T16:27:17.503Z,99639.70
2023-04-29T16:29:44.510Z,99647.41
2023-04-29T16:32:11.671Z,99649.11
2023-04-29T16:34:38.897Z,99637.33
2023-04-29T16:37:07.449Z,99637.86
2023-04-29T16:39:34.873Z,99624.67
2023-04-29T16:42:01.866Z,99625.19
2023-04-29T16:44:29.304Z,99613.85
2023-04-29T16:46:56.980Z,99607.46
2023-04-29T16:49:26.563Z,99613.83
2023-04-29T16:51:54.680Z,99615.11
2023-04-29T16:54:22.478Z,99618.23
2023-04-29T16:56:51.033Z,99622.05
2023-04-29T16:59:18.907Z,99622.52
2023-04-29T17:01:46.454Z,99613.01
2023-04-29T17:04:13.542Z,99620.70
2023-04-29T17:06:41.049Z,99626.91
2023-04-29T17:09:08.756Z,99611.35
2023-04-29T17:11:36.681Z,99612.10
2023-04-29T17:14:03.889Z,99613.90
2023-04-29T17:16:31.198Z,99614.08
2023-04-29T17:18:58.426Z,99618.82
2023-04-29T17:21:26.131Z,99622.13
2023-04-29T17:23:53.561Z,99622.34
2023-04-29T17:26:21.315Z,99618.94
2023-04-29T17:28:48.578Z,99624.46
2023-04-29T17:31:15.944Z,99616.98
2023-04-29T17:33:54.803Z,99635.77
2023-04-29T17:36:24.755Z,99628.08
2023-04-29T17:38:52.077Z,99631.33
2023-04-29T17:41:19.138Z,99636.63
2023-04-29T17:43:47.319Z,99633.06
2023-04-29T17:46:14.482Z,99641.27
2023-04-29T17:48:42.014Z,99645.69
2023-04-29T17:51:09.067Z,99650.46
2023-04-29T17:53:36.340Z,99654.35
2023-04-29T17:56:03.571Z,99650.38
2023-04-29T17:58:30.711Z,99656.56
2023-04-29T18:00:57.909Z,99639.23
2023-04-29T18:03:27.316Z,99648.65
2023-04-29T18:05:54.862Z,99652.38
2023-04-29T18:08:21.843Z,99650.81
2023-04-29T18:10:48.889Z,99652.04
2023-04-29T18:13:16.145Z,99660.31
2023-04-29T18:15:43.050Z,99656.32
2023-04-29T18:18:10.246Z,99667.21
2023-04-29T18:20:37.324Z,99676.14
2023-04-29T18:23:04.273Z,99670.67
2023-04-29T18:25:36.311Z,99659.24
2023-04-29T18:28:23.106Z,99656.45
2023-04-29T18:30:51.906Z,99649.88
2023-04-29T18:33:19.268Z,99641.48
2023-04-29T18:35:46.240Z,99648.84
2023-04-29T18:38:17.290Z,99643.85
2023-04-29T18:40:44.595Z,99637.97
2023-04-29T18:43:15.316Z,99642.11
2023-04-29T18:45:42.258Z,99630.02
2023-04-29T18:48:09.965Z,99633.21
2023-04-29T18:50:37.045Z,99629.85
2023-04-29T18:53:04.118Z,99617.84
2023-04-29T18:55:31.092Z,99613.26
2023-04-29T18:57:58.096Z,99597.67
2023-04-29T19:00:25.676Z,99605.75
2023-04-29T19:02:53.620Z,99596.17
2023-04-29T19:05:21.581Z,99587.14
2023-04-29T19:07:49.823Z,99575.52
2023-04-29T19:10:16.877Z,99558.80
2023-04-29T19:12:44.144Z,99536.95
2023-04-29T19:15:11.833Z,99553.15
2023-04-29T19:17:39.067Z,99550.61
2023-04-29T19:20:07.439Z,99552.84
2023-04-29T19:22:35.540Z,99549.05
2023-04-29T19:25:02.637Z,99546.44
2023-04-29T19:37:04.821Z,99523.83
2023-04-29T19:39:34.168Z,99530.26
2023-04-29T19:42:01.218Z,99524.96
2023-04-29T19:44:28.385Z,99518.64
2023-04-29T19:46:55.688Z,99516.00
2023-04-29T19:49:23.035Z,99517.14
2023-04-29T19:51:51.950Z,99509.23
2023-04-29T19:54:19.656Z,99505.60
2023-04-29T19:56:46.816Z,99508.44
2023-04-29T19:59:14.110Z,99506.43
2023-04-29T20:01:41.589Z,99508.87
2023-04-29T20:04:09.958Z,99509.67
2023-04-29T20:06:39.355Z,99508.65
2023-04-29T20:09:08.952Z,99494.38
2023-04-29T20:11:36.483Z,99489.77
2023-04-29T20:14:04.067Z,99491.45
2023-04-29T20:16:32.434Z,99486.36
2023-04-29T20:18:59.946Z,99474.67
2023-04-29T20:21:29.114Z,99460.90
2023-04-29T20:23:56.143Z,99467.50
2023-04-29T20:26:23.369Z,99486.67
2023-04-29T20:28:50.557Z,99486.45
2023-04-29T20:31:19.438Z,99495.16
2023-04-29T20:33:47.283Z,99499.29
2023-04-29T20:36:14.621Z,99494.99
2023-04-29T20:38:41.986Z,99482.39
2023-04-29T20:41:09.266Z,99474.88
2023-04-29T20:43:36.594Z,99460.17
2023-04-29T20:46:03.836Z,99459.05
2023-04-29T20:48:31.405Z,99451.02
2023-04-29T20:50:58.482Z,99440.12
2023-04-29T20:53:25.953Z,99438.83
2023-04-29T20:55:53.122Z,99433.58
2023-04-29T20:58:20.376Z,99432.21
2023-04-29T21:00:47.578Z,99424.88
2023-04-29T21:03:14.822Z,99421.27
2023-04-29T21:05:41.940Z,99422.88
2023-04-29T21:08:09.066Z,99427.61
2023-04-29T21:10:36.532Z,99420.05
2023-04-29T21:13:04.032Z,99418.98
2023-04-29T21:15:31.492Z,99413.48
2023-04-29T21:17:58.646Z,99403.83
2023-04-29T21:20:26.115Z,99410.91
2023-04-29T21:22:53.290Z,99406.17
2023-04-29T21:25:20.394Z,99410.42
2023-04-29T21:27:47.440Z,99408.45
2023-04-29T21:30:14.735Z,99394.25
2023-04-29T21:32:41.965Z,99388.02
2023-04-29T21:35:09.921Z,99371.30
2023-04-29T21:37:37.293Z,99383.33
2023-04-29T21:40:04.836Z,99383.02
2023-04-29T21:42:32.794Z,99374.33
2023-04-29T21:45:01.102Z,99372.27
2023-04-29T21:47:29.361Z,99372.52
2023-04-29T21:49:56.968Z,99369.41
2023-04-29T21:52:24.840Z,99375.91
2023-04-29T21:54:52.033Z,99374.12
2023-04-29T21:57:24.011Z,99378.88
2023-04-29T21:59:59.735Z,99380.08
2023-04-29T22:02:38.070Z,99389.73
2023-04-29T22:05:05.661Z,99384.65
2023-04-29T22:07:32.797Z,99387.29
2023-04-29T22:09:59.977Z,99377.02
2023-04-29T22:12:27.384Z,99372.48
2023-04-29T22:14:54.396Z,99373.23
2023-04-29T22:17:21.780Z,99371.06
2023-04-29T22:19:49.010Z,99371.48
2023-04-29T22:22:15.996Z,99368.62
2023-04-29T22:24:43.007Z,99367.93
2023-04-29T22:27:10.276Z,99364.86
2023-04-29T22:29:37.408Z,99364.55
2023-04-29T22:32:05.195Z,99364.61
2023-04-29T22:34:32.437Z,99363.46
2023-04-29T22:37:00.005Z,99355.86
2023-04-29T22:39:27.371Z,99343.20
2023-04-29T22:41:54.504Z,99342.16
2023-04-29T22:44:21.737Z,99329.89
2023-04-29T22:46:48.910Z,99325.86
2023-04-29T22:49:16.141Z,99321.76
2023-04-29T22:51:43.490Z,99312.06
2023-04-29T22:54:10.850Z,99306.45
2023-04-29T22:56:38.971Z,99291.98
2023-04-29T22:59:07.105Z,99288.07
2023-04-29T23:01:34.587Z,99279.70
2023-04-29T23:04:01.701Z,99281.55
2023-04-29T23:06:28.981Z,99281.40
2023-04-29T23:08:56.410Z,99277.64
2023-04-29T23:11:23.470Z,99277.48
2023-04-29T23:13:50.843Z,99270.76
2023-04-29T23:16:17.903Z,99274.30
2023-04-29T23:18:45.109Z,99264.83
2023-04-29T23:21:12.166Z,99262.23
2023-04-29T23:23:39.720Z,99257.46
2023-04-29T23:26:06.785Z,99260.53
2023-04-29T23:28:33.917Z,99255.70
2023-04-29T23:31:01.215Z,99250.38
2023-04-29T23:33:28.328Z,99238.48
2023-04-29T23:35:55.782Z,99242.50
2023-04-29T23:38:22.860Z,99234.77
2023-04-29T23:40:50.174Z,99239.58
2023-04-29T23:43:18.410Z,99234.70
2023-04-29T23:45:46.441Z,99232.65
2023-04-29T23:48:14.114Z,99232.80
2023-04-29T23:50:41.157Z,99228.84
2023-04-29T23:53:08.498Z,99237.96
2023-04-29T23:55:35.877Z,99247.56
2023-04-29T23:58:02.887Z,99251.52
